Time;durP1;ratioP1;P1;durP2;ratioP2;P2;SDS_P1;SDS_P2;PMS_P1;PMS_P2;Temp;Humidity;BMP_temperature;BMP_pressure;BME280_temperature;BME280_humidity;BME280_pressure;Samples;Min_cycle;Max_cycle;Signal;HPM_P1;HPM_P2
2021/03/08 00:01:17;;;;;;;;;;;;;;;6.38;46.27;101586.06;5009443;28;6848;-76
2021/03/08 00:03:43;;;;;;;;;;;;;;;6.37;46.30;101586.88;5004570;28;7214;-76
2021/03/08 00:06:08;;;;;;;;;;;;;;;6.35;46.12;101578.16;5003176;28;8781;-75
2021/03/08 00:08:34;;;;;;;;;;;;;;;6.32;46.16;101584.88;4999224;28;8490;-76
2021/03/08 00:10:59;;;;;;;;;;;;;;;6.32;46.09;101585.75;5000923;28;7126;-76
2021/03/08 00:13:25;;;;;;;;;;;;;;;6.30;46.70;101587.38;5000891;28;7396;-76
2021/03/08 00:15:50;;;;;;;;;;;;;;;6.25;46.33;101581.06;5000534;28;7210;-76
2021/03/08 00:18:20;;;;;;;;;;;;;;;6.25;46.50;101581.06;5001607;28;7118;-76
2021/03/08 00:20:45;;;;;;;;;;;;;;;6.22;46.44;101586.06;5000793;28;7584;-76
2021/03/08 00:23:11;;;;;;;;;;;;;;;6.21;46.32;101592.03;5017635;28;7260;-76
2021/03/08 00:25:36;;;;;;;;;;;;;;;6.19;46.43;101596.19;5014957;28;6867;-76
2021/03/08 00:28:02;;;;;;;;;;;;;;;6.18;46.36;101584.13;5016722;28;7178;-76
2021/03/08 00:30:28;;;;;;;;;;;;;;;6.18;46.56;101581.53;4987653;28;8687;-76
2021/03/08 00:32:53;;;;;;;;;;;;;;;6.15;47.08;101588.22;4998367;28;7194;-75
2021/03/08 00:35:19;;;;;;;;;;;;;;;6.14;46.67;101589.91;5004767;28;7032;-76
2021/03/08 00:37:45;;;;;;;;;;;;;;;6.12;46.46;101588.94;5016676;28;7102;-76
2021/03/08 00:40:12;;;;;;;;;;;;;;;6.13;46.06;101584.69;5015246;28;7264;-76
2021/03/08 00:42:38;;;;;;;;;;;;;;;6.11;46.32;101587.19;4999717;28;6808;-76
2021/03/08 00:45:06;;;;;;;;;;;;;;;6.09;47.09;101589.66;5002343;28;7322;-76
2021/03/08 00:47:32;;;;;;;;;;;;;;;6.07;47.14;101586.13;4984433;28;7376;-76
2021/03/08 00:49:57;;;;;;;;;;;;;;;6.06;46.95;101591.19;4999866;28;7726;-76
2021/03/08 00:52:23;;;;;;;;;;;;;;;6.06;47.22;101588.63;5000340;28;7504;-76
2021/03/08 00:54:48;;;;;;;;;;;;;;;5.98;47.23;101588.19;5001476;28;6787;-76
2021/03/08 00:57:14;;;;;;;;;;;;;;;6.01;46.76;101584.91;4999973;28;7270;-76
2021/03/08 00:59:39;;;;;;;;;;;;;;;5.99;47.06;101581.34;5014429;28;7335;-76
2021/03/08 01:02:05;;;;;;;;;;;;;;;5.95;47.37;101589.72;5013025;28;7594;-76
2021/03/08 01:04:30;;;;;;;;;;;;;;;5.96;47.29;101591.47;5015767;28;7561;-76
2021/03/08 01:06:56;;;;;;;;;;;;;;;5.93;47.40;101592.22;5001078;28;7275;-76
2021/03/08 01:09:21;;;;;;;;;;;;;;;5.94;47.35;101580.22;4996142;28;6859;-76
2021/03/08 01:11:47;;;;;;;;;;;;;;;5.94;47.18;101575.94;4997469;28;7407;-76
2021/03/08 01:14:13;;;;;;;;;;;;;;;5.95;46.86;101569.97;4999427;28;7008;-76
2021/03/08 01:16:38;;;;;;;;;;;;;;;5.93;47.32;101575.84;4997656;28;6799;-76
2021/03/08 01:19:04;;;;;;;;;;;;;;;5.94;46.90;101572.47;5000112;28;7477;-75
2021/03/08 01:21:30;;;;;;;;;;;;;;;5.93;47.04;101568.13;5001134;28;7401;-76
2021/03/08 01:23:55;;;;;;;;;;;;;;;5.93;47.67;101558.69;5004958;28;7132;-76
2021/03/08 01:26:21;;;;;;;;;;;;;;;5.92;46.78;101558.63;5009246;28;7395;-76
2021/03/08 01:28:46;;;;;;;;;;;;;;;5.87;47.44;101557.44;4989453;28;6800;-76
2021/03/08 01:31:12;;;;;;;;;;;;;;;5.87;47.31;101553.19;4990128;28;7296;-76
2021/03/08 01:33:37;;;;;;;;;;;;;;;5.85;47.77;101549.63;5002904;28;7091;-76
2021/03/08 01:36:03;;;;;;;;;;;;;;;5.87;47.33;101554.88;4987263;28;6925;-75
2021/03/08 01:38:29;;;;;;;;;;;;;;;5.80;48.15;101554.50;5003276;28;7341;-76
2021/03/08 01:40:54;;;;;;;;;;;;;;;5.86;47.55;101546.25;5002859;28;6805;-76
2021/03/08 01:43:21;;;;;;;;;;;;;;;5.83;47.93;101545.19;5001103;28;7122;-76
2021/03/08 01:45:46;;;;;;;;;;;;;;;5.83;47.79;101538.34;4976775;28;6856;-76
2021/03/08 01:48:12;;;;;;;;;;;;;;;5.82;47.84;101536.59;4998508;28;7246;-76
2021/03/08 01:50:47;;;;;;;;;;;;;;;5.79;47.94;101547.59;5001926;28;8000;-76
2021/03/08 01:53:14;;;;;;;;;;;;;;;5.79;47.76;101542.44;5000554;28;7100;-76
2021/03/08 01:55:40;;;;;;;;;;;;;;;5.78;47.79;101547.50;4998926;28;7533;-76
2021/03/08 01:58:06;;;;;;;;;;;;;;;5.82;47.81;101539.16;4999067;28;7356;-76
2021/03/08 02:00:31;;;;;;;;;;;;;;;5.82;48.07;101544.31;4999880;28;6809;-76
2021/03/08 02:02:58;;;;;;;;;;;;;;;5.82;47.99;101551.16;4998045;28;7387;-76
2021/03/08 02:05:28;;;;;;;;;;;;;;;5.74;47.89;101541.28;5005445;28;7193;-76
2021/03/08 02:07:54;;;;;;;;;;;;;;;5.77;47.55;101554.34;4979839;28;11201;-76
2021/03/08 02:10:19;;;;;;;;;;;;;;;5.74;48.19;101554.19;5000123;28;7302;-76
2021/03/08 02:12:48;;;;;;;;;;;;;;;5.78;47.68;101548.38;4999688;28;7210;-76
2021/03/08 02:15:41;;;;;;;;;;;;;;;5.79;48.06;101541.53;5001048;28;7081;-76
2021/03/08 02:18:18;;;;;;;;;;;;;;;5.79;47.54;101532.13;5000711;28;10984;-76
2021/03/08 02:21:04;;;;;;;;;;;;;;;5.73;48.00;101521.47;4997663;28;7833;-76
2021/03/08 02:23:52;;;;;;;;;;;;;;;5.74;47.84;101533.56;5008361;28;10983;-76
2021/03/08 02:26:40;;;;;;;;;;;;;;;5.73;48.12;101530.91;5000192;28;7071;-76
2021/03/08 02:29:09;;;;;;;;;;;;;;;5.70;47.76;101526.47;5014509;28;12549;-76
2021/03/08 02:31:34;;;;;;;;;;;;;;;5.72;48.05;101526.56;4998900;28;6791;-76
2021/03/08 02:34:07;;;;;;;;;;;;;;;5.69;48.56;101524.69;4989483;28;7330;-76
2021/03/08 02:36:34;;;;;;;;;;;;;;;5.70;48.17;101515.28;4978878;28;6823;-76
2021/03/08 02:39:04;;;;;;;;;;;;;;;5.68;48.44;101520.34;4979385;28;6958;-76
2021/03/08 02:41:30;;;;;;;;;;;;;;;5.71;47.53;101517.94;4993368;28;6902;-76
2021/03/08 02:44:07;;;;;;;;;;;;;;;5.71;48.30;101517.06;5015310;28;6788;-76
2021/03/08 02:46:35;;;;;;;;;;;;;;;5.69;47.64;101521.25;5000450;28;11064;-76
2021/03/08 02:49:02;;;;;;;;;;;;;;;5.70;47.75;101520.44;4997288;28;6955;-76
2021/03/08 02:51:29;;;;;;;;;;;;;;;5.69;48.06;101528.97;4998367;28;6827;-76
2021/03/08 02:53:56;;;;;;;;;;;;;;;5.66;47.65;101521.97;4999867;28;6888;-76
2021/03/08 02:56:23;;;;;;;;;;;;;;;5.66;47.90;101516.81;4995690;28;11294;-76
2021/03/08 02:58:50;;;;;;;;;;;;;;;5.65;47.82;101517.63;4998660;28;6867;-76
2021/03/08 03:01:16;;;;;;;;;;;;;;;5.64;48.29;101509.81;5000252;28;7241;-76
2021/03/08 03:03:43;;;;;;;;;;;;;;;5.61;48.34;101515.69;4999612;28;7283;-76
2021/03/08 03:06:09;;;;;;;;;;;;;;;5.60;48.43;101519.03;4997377;28;7138;-76
2021/03/08 03:08:34;;;;;;;;;;;;;;;5.59;48.37;101513.78;4998670;28;8066;-76
2021/03/08 03:11:00;;;;;;;;;;;;;;;5.58;48.24;101514.59;4996543;28;7588;-76
2021/03/08 03:13:25;;;;;;;;;;;;;;;5.56;48.20;101508.47;4980806;28;6776;-76
2021/03/08 03:15:51;;;;;;;;;;;;;;;5.54;48.83;101510.06;4998165;28;7568;-75
2021/03/08 03:18:17;;;;;;;;;;;;;;;5.53;48.73;101514.34;5011906;28;7020;-76
2021/03/08 03:20:42;;;;;;;;;;;;;;;5.51;47.91;101513.38;4980082;28;7075;-76
2021/03/08 03:23:08;;;;;;;;;;;;;;;5.48;48.45;101513.22;5003512;28;7356;-75
2021/03/08 03:25:33;;;;;;;;;;;;;;;5.45;47.99;101513.94;5002771;28;6974;-76
2021/03/08 03:27:59;;;;;;;;;;;;;;;5.44;48.60;101525.03;5000285;28;7344;-75
2021/03/08 03:30:27;;;;;;;;;;;;;;;5.45;48.75;101525.94;4999818;28;7101;-76
2021/03/08 03:32:53;;;;;;;;;;;;;;;5.43;49.07;101532.69;4993830;28;12915;-75
2021/03/08 03:35:20;;;;;;;;;;;;;;;5.42;48.19;101528.34;4995614;28;7028;-75
2021/03/08 03:37:46;;;;;;;;;;;;;;;5.38;48.85;101516.94;5008085;28;7278;-76
2021/03/08 03:40:13;;;;;;;;;;;;;;;5.37;48.78;101528.06;4987432;28;7578;-75
2021/03/08 03:42:39;;;;;;;;;;;;;;;5.36;48.56;101531.44;5008465;28;8225;-75
2021/03/08 03:45:08;;;;;;;;;;;;;;;5.34;48.86;101527.88;4991645;28;8831;-75
2021/03/08 03:47:34;;;;;;;;;;;;;;;5.34;48.90;101534.72;4990648;28;8450;-75
2021/03/08 03:50:00;;;;;;;;;;;;;;;5.33;48.65;101526.09;5008899;28;6827;-75
2021/03/08 03:52:25;;;;;;;;;;;;;;;5.32;48.55;101526.03;5006879;28;7079;-76
2021/03/08 03:54:51;;;;;;;;;;;;;;;5.30;48.47;101533.66;5007042;28;6947;-75
2021/03/08 03:57:16;;;;;;;;;;;;;;;5.30;48.56;101533.66;5007837;28;6784;-76
2021/03/08 03:59:46;;;;;;;;;;;;;;;5.28;48.82;101526.66;4991403;28;7398;-75
2021/03/08 04:02:22;;;;;;;;;;;;;;;5.26;48.73;101538.56;4987713;28;7298;-75
2021/03/08 04:04:50;;;;;;;;;;;;;;;5.26;48.98;101536.00;5000820;28;6867;-76
2021/03/08 04:07:16;;;;;;;;;;;;;;;5.26;48.96;101536.00;4991276;28;7333;-76
2021/03/08 04:09:44;;;;;;;;;;;;;;;5.24;49.27;101545.31;4991997;28;7304;-76
2021/03/08 04:12:10;;;;;;;;;;;;;;;5.23;49.46;101543.53;4990956;28;6824;-76
2021/03/08 04:14:35;;;;;;;;;;;;;;;5.23;49.06;101543.53;4990650;28;6848;-75
2021/03/08 04:17:01;;;;;;;;;;;;;;;5.21;48.86;101543.47;4992788;28;6810;-75
2021/03/08 04:19:29;;;;;;;;;;;;;;;5.21;49.41;101555.44;5000239;28;7123;-74
2021/03/08 04:21:58;;;;;;;;;;;;;;;5.18;48.79;101551.88;4995578;28;13034;-74
2021/03/08 04:24:24;;;;;;;;;;;;;;;5.18;49.59;101551.88;4993980;28;11191;-76
2021/03/08 04:26:50;;;;;;;;;;;;;;;5.17;49.07;101549.19;4978236;28;8446;-74
2021/03/08 04:29:17;;;;;;;;;;;;;;;5.16;49.73;101550.00;4991606;28;6803;-75
2021/03/08 04:31:42;;;;;;;;;;;;;;;5.15;49.34;101550.81;4989787;28;7254;-76
2021/03/08 04:34:08;;;;;;;;;;;;;;;5.13;49.30;101553.28;4984192;28;8482;-76
2021/03/08 04:36:33;;;;;;;;;;;;;;;5.12;49.32;101551.53;4990482;28;7596;-74
2021/03/08 04:38:59;;;;;;;;;;;;;;;5.10;49.47;101547.97;5008479;28;6791;-72
2021/03/08 04:41:28;;;;;;;;;;;;;;;5.09;49.17;101553.94;5028007;28;6945;-75
2021/03/08 04:43:54;;;;;;;;;;;;;;;5.09;49.17;101561.66;5006194;28;11481;-77
2021/03/08 04:46:20;;;;;;;;;;;;;;;5.08;49.49;101557.28;5026299;28;7473;-77
2021/03/08 04:48:45;;;;;;;;;;;;;;;5.08;49.14;101557.28;5005966;28;9792;-77
2021/03/08 04:51:11;;;;;;;;;;;;;;;5.07;49.59;101559.78;5010056;28;7506;-77
2021/03/08 04:53:37;;;;;;;;;;;;;;;5.07;49.41;101562.38;5009861;28;6791;-76
2021/03/08 04:56:03;;;;;;;;;;;;;;;5.04;49.51;101550.19;4987330;28;7042;-77
2021/03/08 04:58:30;;;;;;;;;;;;;;;5.04;49.39;101557.03;5000819;28;7359;-77
2021/03/08 05:00:56;;;;;;;;;;;;;;;5.03;49.53;101555.25;4998711;28;11017;-76
2021/03/08 05:03:22;;;;;;;;;;;;;;;5.00;50.07;101562.78;5000987;28;7269;-77
2021/03/08 05:05:47;;;;;;;;;;;;;;;5.00;49.59;101568.81;4997773;28;7886;-77
2021/03/08 05:08:14;;;;;;;;;;;;;;;4.99;50.23;101561.91;5001143;28;8603;-76
2021/03/08 05:10:39;;;;;;;;;;;;;;;5.00;49.77;101571.38;5000209;28;7218;-77
2021/03/08 05:13:09;;;;;;;;;;;;;;;4.98;50.02;101559.22;5004699;28;7099;-72
2021/03/08 05:15:35;;;;;;;;;;;;;;;4.98;50.07;101560.13;5000315;28;8493;-76
2021/03/08 05:18:01;;;;;;;;;;;;;;;4.97;50.08;101567.75;5017498;28;8583;-77
2021/03/08 05:20:26;;;;;;;;;;;;;;;4.96;49.60;101558.25;5000638;28;7331;-77
2021/03/08 05:22:52;;;;;;;;;;;;;;;4.96;49.94;101571.13;5006365;28;6843;-77
2021/03/08 05:25:18;;;;;;;;;;;;;;;4.96;49.66;101572.00;4996895;28;7554;-77
2021/03/08 05:27:45;;;;;;;;;;;;;;;4.94;49.95;101565.91;5000614;28;7240;-77
2021/03/08 05:30:15;;;;;;;;;;;;;;;4.93;50.36;101570.94;5000681;28;7091;-77
2021/03/08 05:32:47;;;;;;;;;;;;;;;4.91;50.48;101570.88;5001993;28;7339;-73
2021/03/08 05:35:13;;;;;;;;;;;;;;;4.91;50.19;101573.44;4981300;28;7018;-73
2021/03/08 05:37:39;;;;;;;;;;;;;;;4.91;50.40;101576.00;5004210;28;7338;-73
2021/03/08 05:40:09;;;;;;;;;;;;;;;4.89;50.38;101577.63;4999121;28;7195;-73
2021/03/08 05:42:35;;;;;;;;;;;;;;;4.88;50.45;101579.28;4997040;28;7137;-73
2021/03/08 05:45:08;;;;;;;;;;;;;;;4.95;50.08;101580.53;4995029;28;8519;-76
2021/03/08 05:47:39;;;;;;;;;;;;;;;4.94;50.54;101583.03;5000593;28;6891;-76
2021/03/08 05:50:30;;;;;;;;;;;;;;;4.89;51.03;101580.19;4998005;28;7226;-76
2021/03/08 05:53:25;;;;;;;;;;;;;;;4.94;50.56;101581.34;4998537;28;11028;-76
2021/03/08 05:56:06;;;;;;;;;;;;;;;4.94;50.71;101583.91;4995758;28;11216;-76
2021/03/08 05:59:00;;;;;;;;;;;;;;;4.97;50.30;101590.91;4980889;28;11513;-76
2021/03/08 06:01:41;;;;;;;;;;;;;;;5.00;50.82;101588.53;4996657;28;12203;-76
2021/03/08 06:04:44;;;;;;;;;;;;;;;5.02;50.39;101590.41;4991203;28;11662;-76
2021/03/08 06:07:47;;;;;;;;;;;;;;;5.05;49.97;101590.59;4991940;28;11596;-76
2021/03/08 06:10:22;;;;;;;;;;;;;;;5.05;50.38;101598.31;4988411;28;11036;-76
2021/03/08 06:12:48;;;;;;;;;;;;;;;5.10;50.57;101596.00;4987887;28;6915;-76
2021/03/08 06:15:14;;;;;;;;;;;;;;;5.11;50.94;101596.09;4987387;28;7207;-76
2021/03/08 06:17:39;;;;;;;;;;;;;;;5.12;50.64;101597.88;4986832;28;7234;-76
2021/03/08 06:20:08;;;;;;;;;;;;;;;5.17;50.65;101598.13;4986764;28;6836;-76
2021/03/08 06:22:34;;;;;;;;;;;;;;;5.20;49.93;101600.88;4986518;28;7982;-77
2021/03/08 06:24:59;;;;;;;;;;;;;;;5.19;50.47;101600.00;4985144;28;6960;-76
2021/03/08 06:27:25;;;;;;;;;;;;;;;5.26;49.88;101596.09;4985381;28;7203;-76
2021/03/08 06:29:51;;;;;;;;;;;;;;;5.27;49.65;101604.72;4975433;28;7206;-76
2021/03/08 06:32:17;;;;;;;;;;;;;;;5.28;49.84;101597.06;4988289;28;7274;-77
2021/03/08 06:34:42;;;;;;;;;;;;;;;5.31;49.73;101597.25;4985691;28;6794;-76
2021/03/08 06:37:09;;;;;;;;;;;;;;;5.35;49.56;101600.88;4998217;28;6867;-76
2021/03/08 06:39:38;;;;;;;;;;;;;;;5.38;49.64;101598.47;4986195;28;6838;-77
2021/03/08 06:42:04;;;;;;;;;;;;;;;5.39;49.69;101601.13;4988389;28;7184;-76
2021/03/08 06:44:30;;;;;;;;;;;;;;;5.41;50.02;101603.84;5020966;28;7576;-76
2021/03/08 06:46:56;;;;;;;;;;;;;;;5.46;49.95;101604.97;5025232;28;7163;-76
2021/03/08 06:49:21;;;;;;;;;;;;;;;5.48;50.06;101606.84;5001139;28;7317;-76
2021/03/08 06:52:05;;;;;;;;;;;;;;;5.52;49.65;101615.63;4994352;28;6791;-76
2021/03/08 06:54:31;;;;;;;;;;;;;;;5.56;49.75;101614.09;4997946;28;11113;-76
2021/03/08 06:56:57;;;;;;;;;;;;;;;5.64;49.72;101615.44;4969356;28;11327;-76
2021/03/08 06:59:23;;;;;;;;;;;;;;;5.65;49.10;101618.09;4999465;28;6851;-77
2021/03/08 07:01:50;;;;;;;;;;;;;;;5.69;49.30;101624.31;4995714;28;7222;-76
2021/03/08 07:04:17;;;;;;;;;;;;;;;5.76;49.39;101632.47;5000592;28;7250;-76
2021/03/08 07:07:03;;;;;;;;;;;;;;;5.79;49.29;101630.06;5016944;28;7414;-76
2021/03/08 07:09:29;;;;;;;;;;;;;;;5.83;49.02;101628.56;5002266;28;11317;-76
2021/03/08 07:12:10;;;;;;;;;;;;;;;5.90;49.20;101624.66;4983798;28;6995;-76
2021/03/08 07:14:37;;;;;;;;;;;;;;;5.95;49.14;101634.44;5003342;28;11173;-76
2021/03/08 07:17:23;;;;;;;;;;;;;;;5.97;48.89;101635.41;5001528;28;8810;-76
2021/03/08 07:19:53;;;;;;;;;;;;;;;6.04;49.05;101645.28;5002081;28;7913;-76
2021/03/08 07:22:44;;;;;;;;;;;;;;;6.08;48.58;101639.47;5001978;28;7104;-76
2021/03/08 07:25:19;;;;;;;;;;;;;;;6.14;48.76;101638.91;5014786;28;11147;-75
2021/03/08 07:27:49;;;;;;;;;;;;;;;6.21;48.72;101640.16;5003559;28;7015;-76
2021/03/08 07:30:15;;;;;;;;;;;;;;;6.28;48.08;101643.16;4998182;28;7000;-76
2021/03/08 07:33:05;;;;;;;;;;;;;;;6.35;48.19;101654.69;4999498;28;7408;-76
2021/03/08 07:35:52;;;;;;;;;;;;;;;6.45;48.11;101648.34;4999338;28;11259;-76
2021/03/08 07:38:31;;;;;;;;;;;;;;;6.51;48.10;101651.25;5001096;28;11308;-76
2021/03/08 07:41:16;;;;;;;;;;;;;;;6.57;47.93;101656.72;4999462;28;6986;-76
2021/03/08 07:43:43;;;;;;;;;;;;;;;6.63;47.69;101659.66;4991719;28;11153;-76
2021/03/08 07:46:34;;;;;;;;;;;;;;;6.72;47.36;101667.88;4983136;28;7348;-76
2021/03/08 07:49:02;;;;;;;;;;;;;;;6.78;47.61;101663.03;5000171;28;11091;-76
2021/03/08 07:51:27;;;;;;;;;;;;;;;6.85;47.25;101659.97;4964474;28;11019;-76
2021/03/08 07:54:03;;;;;;;;;;;;;;;6.93;46.98;101658.69;5013822;28;6795;-76
2021/03/08 07:56:29;;;;;;;;;;;;;;;6.99;47.01;101660.69;4998654;28;12178;-76
2021/03/08 07:58:54;;;;;;;;;;;;;;;7.06;46.91;101659.31;5012789;28;7106;-76
2021/03/08 08:01:20;;;;;;;;;;;;;;;7.14;46.86;101663.19;5013296;28;7205;-76
2021/03/08 08:03:46;;;;;;;;;;;;;;;7.19;47.10;101659.13;5013973;28;8519;-76
2021/03/08 08:06:11;;;;;;;;;;;;;;;7.23;46.45;101663.66;5015406;28;6788;-76
2021/03/08 08:08:38;;;;;;;;;;;;;;;7.28;46.66;101667.38;5000250;28;7372;-76
2021/03/08 08:11:04;;;;;;;;;;;;;;;7.35;46.58;101666.84;5017104;28;7207;-75
2021/03/08 08:13:44;;;;;;;;;;;;;;;7.41;46.15;101669.78;4999375;28;7409;-77
2021/03/08 08:16:10;;;;;;;;;;;;;;;7.49;46.10;101665.88;5016852;28;11113;-77
2021/03/08 08:18:38;;;;;;;;;;;;;;;7.56;46.12;101661.88;5003293;28;7290;-76
2021/03/08 08:21:04;;;;;;;;;;;;;;;7.61;45.71;101655.25;5000978;28;7065;-76
2021/03/08 08:23:31;;;;;;;;;;;;;;;7.70;46.17;101662.56;4992556;28;7068;-76
2021/03/08 08:25:57;;;;;;;;;;;;;;;7.83;45.56;101665.84;4998166;28;8163;-77
2021/03/08 08:28:23;;;;;;;;;;;;;;;7.94;45.55;101662.06;5015042;28;7297;-77
2021/03/08 08:30:55;;;;;;;;;;;;;;;8.05;45.25;101662.59;4996958;28;6819;-77
2021/03/08 08:33:28;;;;;;;;;;;;;;;8.10;45.24;101671.44;5002553;28;7439;-78
2021/03/08 08:36:14;;;;;;;;;;;;;;;8.11;44.97;101670.63;5009691;28;7087;-77
2021/03/08 08:38:41;;;;;;;;;;;;;;;8.13;45.01;101661.25;5001084;28;11283;-77
2021/03/08 08:41:22;;;;;;;;;;;;;;;8.24;44.87;101654.88;5003611;28;6822;-77
2021/03/08 08:44:09;;;;;;;;;;;;;;;8.37;44.67;101650.28;5015885;28;7344;-76
2021/03/08 08:46:36;;;;;;;;;;;;;;;8.47;44.62;101650.81;5002045;28;11153;-76
2021/03/08 08:49:06;;;;;;;;;;;;;;;8.54;44.16;101654.56;4978146;28;663262;-76
2021/03/08 08:51:51;;;;;;;;;;;;;;;8.61;44.34;101641.09;5000787;28;11270;-77
2021/03/08 08:54:31;;;;;;;;;;;;;;;8.64;44.11;101650.69;5002249;28;11373;-77
2021/03/08 08:57:03;;;;;;;;;;;;;;;8.70;44.15;101646.66;5004986;28;7255;-77
2021/03/08 08:59:30;;;;;;;;;;;;;;;8.75;44.33;101639.97;5005103;28;11034;-76
2021/03/08 09:02:11;;;;;;;;;;;;;;;8.79;43.96;101643.59;5004041;28;7306;-77
2021/03/08 09:04:36;;;;;;;;;;;;;;;8.89;44.12;101638.00;4989283;28;11201;-77
2021/03/08 09:07:03;;;;;;;;;;;;;;;9.02;43.87;101644.63;5008390;28;7099;-77
2021/03/08 09:09:31;;;;;;;;;;;;;;;9.11;43.54;101642.44;4977265;28;7190;-76
2021/03/08 09:12:06;;;;;;;;;;;;;;;9.21;43.55;101642.03;4989092;28;6796;-76
2021/03/08 09:14:37;;;;;;;;;;;;;;;9.35;43.05;101645.19;4989243;28;12281;-77
2021/03/08 09:17:14;;;;;;;;;;;;;;;9.49;43.11;101640.59;4986118;28;11327;-76
2021/03/08 09:19:41;;;;;;;;;;;;;;;9.59;42.81;101635.81;4988410;28;12774;-77
2021/03/08 09:22:28;;;;;;;;;;;;;;;9.69;42.48;101627.63;4990710;28;7214;-77
2021/03/08 09:25:14;;;;;;;;;;;;;;;9.73;42.40;101637.28;4991820;28;6839;-77
2021/03/08 09:27:47;;;;;;;;;;;;;;;9.73;42.41;101641.59;4993328;28;13230;-76
2021/03/08 09:30:20;;;;;;;;;;;;;;;9.75;42.76;101637.34;5001979;28;6812;-76
2021/03/08 09:32:54;;;;;;;;;;;;;;;9.75;42.81;101639.94;4976068;28;7302;-77
2021/03/08 09:35:21;;;;;;;;;;;;;;;9.72;42.60;101640.69;5006056;28;7181;-76
2021/03/08 09:37:54;;;;;;;;;;;;;;;9.74;42.74;101641.66;4989499;28;7202;-77
2021/03/08 09:40:25;;;;;;;;;;;;;;;9.76;42.57;101647.78;4986639;28;7309;-76
2021/03/08 09:42:50;;;;;;;;;;;;;;;9.80;42.74;101637.53;4990467;28;7237;-77
2021/03/08 09:45:31;;;;;;;;;;;;;;;9.83;42.64;101641.16;5009578;28;6796;-77
2021/03/08 09:48:00;;;;;;;;;;;;;;;9.88;42.56;101638.72;4990828;28;7266;-76
2021/03/08 09:50:32;;;;;;;;;;;;;;;9.91;42.66;101636.25;4992575;28;7318;-76
2021/03/08 09:52:58;;;;;;;;;;;;;;;9.94;42.42;101638.97;4984196;28;6959;-77
2021/03/08 09:55:26;;;;;;;;;;;;;;;9.94;42.56;101639.84;5004314;28;7261;-76
2021/03/08 09:57:51;;;;;;;;;;;;;;;9.94;42.43;101634.66;4990151;28;7135;-77
2021/03/08 10:00:22;;;;;;;;;;;;;;;9.98;42.42;101640.84;5001004;28;7261;-78
2021/03/08 10:02:58;;;;;;;;;;;;;;;10.03;42.23;101632.44;4989699;28;7655;-77
2021/03/08 10:05:40;;;;;;;;;;;;;;;10.14;42.65;101642.34;4989093;28;6828;-77
2021/03/08 10:08:06;;;;;;;;;;;;;;;10.23;42.15;101640.16;4988633;28;11421;-78
2021/03/08 10:10:35;;;;;;;;;;;;;;;10.27;42.32;101642.03;4990228;28;12561;-78
2021/03/08 10:13:01;;;;;;;;;;;;;;;10.33;42.01;101635.38;4996946;28;11321;-76
2021/03/08 10:15:27;;;;;;;;;;;;;;;10.41;42.61;101633.09;5002246;28;8519;-76
2021/03/08 10:17:59;;;;;;;;;;;;;;;10.58;41.73;101631.97;4989606;28;8392;-77
2021/03/08 10:20:26;;;;;;;;;;;;;;;10.79;41.39;101636.19;4993555;28;6927;-77
2021/03/08 10:22:54;;;;;;;;;;;;;;;10.91;41.21;101647.03;4995105;28;7753;-77
2021/03/08 10:25:23;;;;;;;;;;;;;;;11.01;41.15;101643.94;4989668;28;7560;-78
2021/03/08 10:27:56;;;;;;;;;;;;;;;11.18;40.91;101637.59;4990455;28;7708;-77
2021/03/08 10:30:22;;;;;;;;;;;;;;;11.34;40.51;101640.75;5005091;28;6808;-76
2021/03/08 10:32:48;;;;;;;;;;;;;;;11.44;40.39;101642.84;4987184;28;8505;-77
2021/03/08 10:35:14;;;;;;;;;;;;;;;11.55;39.80;101638.88;4990109;28;7414;-77
2021/03/08 10:37:40;;;;;;;;;;;;;;;11.61;40.11;101644.25;4989563;28;7382;-76
2021/03/08 10:40:06;;;;;;;;;;;;;;;11.70;39.96;101642.00;5008064;28;7325;-76
2021/03/08 10:42:32;;;;;;;;;;;;;;;11.76;39.73;101649.09;4974086;28;11442;-77
2021/03/08 10:44:57;;;;;;;;;;;;;;;11.81;40.27;101643.28;5005818;28;7246;-76
2021/03/08 10:47:23;;;;;;;;;;;;;;;11.91;39.61;101638.34;5003431;28;7350;-76
2021/03/08 10:49:54;;;;;;;;;;;;;;;11.94;39.60;101641.91;4998299;28;8161;-78
2021/03/08 10:52:20;;;;;;;;;;;;;;;11.97;39.80;101643.72;4988356;28;7253;-76
2021/03/08 10:54:47;;;;;;;;;;;;;;;12.02;39.40;101642.19;4987065;28;6867;-78
2021/03/08 10:57:13;;;;;;;;;;;;;;;12.13;39.90;101636.47;4989391;28;7203;-77
2021/03/08 10:59:49;;;;;;;;;;;;;;;12.28;38.91;101630.84;4986932;28;7276;-77
2021/03/08 11:02:16;;;;;;;;;;;;;;;12.41;39.33;101635.59;4992602;28;8525;-77
2021/03/08 11:04:42;;;;;;;;;;;;;;;12.53;38.92;101631.56;5005636;28;6995;-76
2021/03/08 11:07:08;;;;;;;;;;;;;;;12.64;38.52;101630.16;5008209;28;6791;-77
2021/03/08 11:09:35;;;;;;;;;;;;;;;12.72;38.71;101626.03;5006661;28;7201;-77
2021/03/08 11:12:00;;;;;;;;;;;;;;;12.82;38.91;101630.69;5019475;28;7076;-76
2021/03/08 11:14:27;;;;;;;;;;;;;;;12.94;38.13;101631.00;5006724;28;7181;-76
2021/03/08 11:16:54;;;;;;;;;;;;;;;13.04;38.66;101635.66;5005281;28;6892;-77
2021/03/08 11:19:26;;;;;;;;;;;;;;;13.18;38.17;101624.72;5008520;28;6795;-78
2021/03/08 11:22:10;;;;;;;;;;;;;;;13.28;37.93;101627.63;5016794;28;7305;-77
2021/03/08 11:24:46;;;;;;;;;;;;;;;13.41;37.63;101626.19;5005837;28;11295;-77
2021/03/08 11:27:20;;;;;;;;;;;;;;;13.55;37.84;101627.44;5002845;28;11261;-77
2021/03/08 11:30:04;;;;;;;;;;;;;;;13.68;37.72;101624.31;5002510;28;6862;-77
2021/03/08 11:32:30;;;;;;;;;;;;;;;13.73;37.35;101620.91;5004590;28;7059;-77
2021/03/08 11:34:56;;;;;;;;;;;;;;;13.82;37.58;101634.22;5006001;28;7214;-77
2021/03/08 11:37:22;;;;;;;;;;;;;;;13.90;37.43;101628.31;5006781;28;7072;-77
2021/03/08 11:39:52;;;;;;;;;;;;;;;14.01;37.64;101633.75;5000942;28;7111;-77
2021/03/08 11:42:19;;;;;;;;;;;;;;;14.11;36.74;101627.91;4994504;28;7431;-77
2021/03/08 11:44:44;;;;;;;;;;;;;;;14.30;36.96;101626.59;4998238;28;6787;-77
2021/03/08 11:47:10;;;;;;;;;;;;;;;14.45;36.95;101626.97;5000830;28;7013;-77
2021/03/08 11:49:36;;;;;;;;;;;;;;;14.56;36.19;101628.06;5003279;28;7175;-79
2021/03/08 11:52:02;;;;;;;;;;;;;;;14.65;36.34;101627.41;5001499;28;7055;-77
2021/03/08 11:54:27;;;;;;;;;;;;;;;14.79;36.24;101627.66;5003680;28;6817;-77
2021/03/08 11:56:53;;;;;;;;;;;;;;;14.92;35.78;101621.81;5000141;28;6830;-77
2021/03/08 11:59:18;;;;;;;;;;;;;;;15.03;35.59;101627.28;5001155;28;6979;-78
2021/03/08 12:01:44;;;;;;;;;;;;;;;15.09;35.90;101612.56;5000267;28;6807;-77
2021/03/08 12:04:09;;;;;;;;;;;;;;;15.20;35.96;101620.59;4999682;28;7092;-77
2021/03/08 12:06:35;;;;;;;;;;;;;;;15.35;35.77;101609.53;5001238;28;7194;-77
2021/03/08 12:09:01;;;;;;;;;;;;;;;15.40;35.58;101613.97;5015803;28;7363;-77
2021/03/08 12:11:26;;;;;;;;;;;;;;;15.47;35.74;101604.50;5017082;28;7965;-74
2021/03/08 12:13:52;;;;;;;;;;;;;;;15.52;35.03;101606.34;5013881;28;7166;-74
2021/03/08 12:16:17;;;;;;;;;;;;;;;15.60;35.55;101603.88;5000351;28;7008;-73
2021/03/08 12:18:43;;;;;;;;;;;;;;;15.62;35.42;101598.69;4999931;28;7367;-73
2021/03/08 12:21:09;;;;;;;;;;;;;;;15.64;35.64;101591.72;4997633;28;6780;-74
2021/03/08 12:23:34;;;;;;;;;;;;;;;15.76;35.12;101584.06;4998381;28;7103;-75
2021/03/08 12:26:00;;;;;;;;;;;;;;;15.93;35.18;101584.31;4999189;28;7265;-74
2021/03/08 12:28:25;;;;;;;;;;;;;;;16.10;34.80;101586.31;4999584;28;6787;-74
2021/03/08 12:30:52;;;;;;;;;;;;;;;16.23;34.23;101573.38;4996947;28;7458;-78
2021/03/08 12:33:18;;;;;;;;;;;;;;;16.39;34.33;101572.69;4996690;28;7120;-75
2021/03/08 12:35:43;;;;;;;;;;;;;;;16.63;34.26;101574.75;4982926;28;7116;-78
2021/03/08 12:38:09;;;;;;;;;;;;;;;16.79;33.47;101567.97;4999111;28;7489;-78
2021/03/08 12:40:34;;;;;;;;;;;;;;;16.97;33.75;101565.53;5002197;28;6931;-77
2021/03/08 12:43:00;;;;;;;;;;;;;;;17.11;33.17;101556.06;5015753;28;7056;-77
2021/03/08 12:45:26;;;;;;;;;;;;;;;17.23;33.27;101558.81;5011627;28;6795;-77
2021/03/08 12:47:51;;;;;;;;;;;;;;;17.32;33.01;101553.63;5001576;28;7222;-78
2021/03/08 12:50:17;;;;;;;;;;;;;;;17.32;33.11;101545.75;4999960;28;7249;-77
2021/03/08 12:52:42;;;;;;;;;;;;;;;17.37;33.35;101550.13;4998650;28;6806;-77
2021/03/08 12:55:08;;;;;;;;;;;;;;;17.43;33.36;101540.59;5013125;28;7142;-79
2021/03/08 12:57:34;;;;;;;;;;;;;;;17.44;33.07;101536.22;5000871;28;12701;-77
2021/03/08 13:00:01;;;;;;;;;;;;;;;17.48;33.24;101532.75;4996658;28;8196;-77
2021/03/08 13:02:27;;;;;;;;;;;;;;;17.44;33.32;101536.22;4996936;28;7238;-78